sensor_id;sensor_type;location;lat;lon;timestamp;P1;durP1;ratioP1;P2;durP2;ratioP2
5730;SDS011;2890;51.950;7.668;2023-03-04T00:00:46;16.00;;;5.77;;
5730;SDS011;2890;51.950;7.668;2023-03-04T00:03:13;18.00;;;4.83;;
5730;SDS011;2890;51.950;7.668;2023-03-04T00:05:41;18.60;;;4.83;;
5730;SDS011;2890;51.950;7.668;2023-03-04T00:08:07;21.27;;;4.90;;
5730;SDS011;2890;51.950;7.668;2023-03-04T00:10:34;15.73;;;4.43;;
5730;SDS011;2890;51.950;7.668;2023-03-04T00:13:00;14.33;;;4.77;;
5730;SDS011;2890;51.950;7.668;2023-03-04T00:15:26;18.67;;;5.27;;
5730;SDS011;2890;51.950;7.668;2023-03-04T00:17:53;15.97;;;6.40;;
5730;SDS011;2890;51.950;7.668;2023-03-04T00:20:19;14.97;;;4.90;;
5730;SDS011;2890;51.950;7.668;2023-03-04T00:22:47;20.37;;;5.33;;
5730;SDS011;2890;51.950;7.668;2023-03-04T00:25:14;23.80;;;5.67;;
5730;SDS011;2890;51.950;7.668;2023-03-04T00:27:40;14.50;;;4.97;;
5730;SDS011;2890;51.950;7.668;2023-03-04T00:30:07;16.20;;;3.97;;
5730;SDS011;2890;51.950;7.668;2023-03-04T00:32:34;18.40;;;4.87;;
5730;SDS011;2890;51.950;7.668;2023-03-04T00:35:01;14.93;;;4.30;;
5730;SDS011;2890;51.950;7.668;2023-03-04T00:37:27;17.20;;;4.27;;
5730;SDS011;2890;51.950;7.668;2023-03-04T00:39:55;14.03;;;4.40;;
5730;SDS011;2890;51.950;7.668;2023-03-04T00:42:21;16.20;;;3.90;;
5730;SDS011;2890;51.950;7.668;2023-03-04T00:44:47;17.60;;;4.93;;
5730;SDS011;2890;51.950;7.668;2023-03-04T00:47:15;13.77;;;4.70;;
5730;SDS011;2890;51.950;7.668;2023-03-04T00:49:41;15.60;;;4.40;;
5730;SDS011;2890;51.950;7.668;2023-03-04T00:52:08;19.83;;;4.33;;
5730;SDS011;2890;51.950;7.668;2023-03-04T00:54:34;17.50;;;4.37;;
5730;SDS011;2890;51.950;7.668;2023-03-04T00:57:02;14.30;;;3.83;;
5730;SDS011;2890;51.950;7.668;2023-03-04T00:59:28;17.87;;;4.23;;
5730;SDS011;2890;51.950;7.668;2023-03-04T01:01:55;17.67;;;3.97;;
5730;SDS011;2890;51.950;7.668;2023-03-04T01:04:21;13.03;;;3.77;;
5730;SDS011;2890;51.950;7.668;2023-03-04T01:06:47;19.13;;;5.60;;
5730;SDS011;2890;51.950;7.668;2023-03-04T01:09:14;19.13;;;4.37;;
5730;SDS011;2890;51.950;7.668;2023-03-04T01:11:40;14.87;;;3.70;;
5730;SDS011;2890;51.950;7.668;2023-03-04T01:14:08;16.90;;;3.97;;
5730;SDS011;2890;51.950;7.668;2023-03-04T01:16:34;16.03;;;4.00;;
5730;SDS011;2890;51.950;7.668;2023-03-04T01:19:01;17.23;;;3.90;;
5730;SDS011;2890;51.950;7.668;2023-03-04T01:21:27;14.60;;;4.03;;
5730;SDS011;2890;51.950;7.668;2023-03-04T01:23:54;13.53;;;4.10;;
5730;SDS011;2890;51.950;7.668;2023-03-04T01:26:20;15.87;;;4.03;;
5730;SDS011;2890;51.950;7.668;2023-03-04T01:28:46;21.07;;;4.27;;
5730;SDS011;2890;51.950;7.668;2023-03-04T01:31:14;14.03;;;4.13;;
5730;SDS011;2890;51.950;7.668;2023-03-04T01:33:41;17.23;;;4.17;;
5730;SDS011;2890;51.950;7.668;2023-03-04T01:36:07;15.47;;;4.80;;
5730;SDS011;2890;51.950;7.668;2023-03-04T01:38:33;12.20;;;4.17;;
5730;SDS011;2890;51.950;7.668;2023-03-04T01:41:00;17.40;;;4.27;;
5730;SDS011;2890;51.950;7.668;2023-03-04T01:43:27;14.60;;;4.00;;
5730;SDS011;2890;51.950;7.668;2023-03-04T01:45:55;19.83;;;5.13;;
5730;SDS011;2890;51.950;7.668;2023-03-04T01:48:25;16.00;;;4.00;;
5730;SDS011;2890;51.950;7.668;2023-03-04T01:50:53;16.63;;;4.20;;
5730;SDS011;2890;51.950;7.668;2023-03-04T01:53:20;14.67;;;3.80;;
5730;SDS011;2890;51.950;7.668;2023-03-04T01:55:47;22.57;;;4.77;;
5730;SDS011;2890;51.950;7.668;2023-03-04T01:58:14;18.70;;;5.20;;
5730;SDS011;2890;51.950;7.668;2023-03-04T02:00:41;17.70;;;4.37;;
5730;SDS011;2890;51.950;7.668;2023-03-04T02:03:10;15.07;;;3.57;;
5730;SDS011;2890;51.950;7.668;2023-03-04T02:05:40;13.47;;;3.60;;
5730;SDS011;2890;51.950;7.668;2023-03-04T02:08:07;14.60;;;4.47;;
5730;SDS011;2890;51.950;7.668;2023-03-04T02:10:34;18.27;;;4.00;;
5730;SDS011;2890;51.950;7.668;2023-03-04T02:13:01;15.63;;;4.30;;
5730;SDS011;2890;51.950;7.668;2023-03-04T02:15:28;18.67;;;4.00;;
5730;SDS011;2890;51.950;7.668;2023-03-04T02:17:55;16.37;;;4.27;;
5730;SDS011;2890;51.950;7.668;2023-03-04T02:20:24;14.80;;;4.60;;
5730;SDS011;2890;51.950;7.668;2023-03-04T02:22:59;10.83;;;3.50;;
5730;SDS011;2890;51.950;7.668;2023-03-04T02:25:30;16.43;;;3.10;;
5730;SDS011;2890;51.950;7.668;2023-03-04T02:28:00;17.40;;;4.53;;
5730;SDS011;2890;51.950;7.668;2023-03-04T02:30:26;11.63;;;3.47;;
5730;SDS011;2890;51.950;7.668;2023-03-04T02:32:53;13.27;;;3.20;;
5730;SDS011;2890;51.950;7.668;2023-03-04T02:35:19;10.87;;;3.47;;
5730;SDS011;2890;51.950;7.668;2023-03-04T02:37:46;20.83;;;4.47;;
5730;SDS011;2890;51.950;7.668;2023-03-04T02:40:13;11.70;;;3.53;;
5730;SDS011;2890;51.950;7.668;2023-03-04T02:42:42;13.37;;;3.43;;
5730;SDS011;2890;51.950;7.668;2023-03-04T02:48:06;14.73;;;3.07;;
5730;SDS011;2890;51.950;7.668;2023-03-04T02:50:34;14.07;;;3.30;;
5730;SDS011;2890;51.950;7.668;2023-03-04T02:53:02;15.43;;;3.47;;
5730;SDS011;2890;51.950;7.668;2023-03-04T02:55:28;11.03;;;3.73;;
5730;SDS011;2890;51.950;7.668;2023-03-04T02:57:56;11.87;;;3.43;;
5730;SDS011;2890;51.950;7.668;2023-03-04T03:00:22;13.73;;;3.83;;
5730;SDS011;2890;51.950;7.668;2023-03-04T03:02:50;12.07;;;3.63;;
5730;SDS011;2890;51.950;7.668;2023-03-04T03:05:17;10.87;;;3.20;;
5730;SDS011;2890;51.950;7.668;2023-03-04T03:07:44;11.17;;;3.00;;
5730;SDS011;2890;51.950;7.668;2023-03-04T03:10:13;14.87;;;3.10;;
5730;SDS011;2890;51.950;7.668;2023-03-04T03:12:40;13.67;;;3.10;;
5730;SDS011;2890;51.950;7.668;2023-03-04T03:15:06;9.30;;;2.80;;
5730;SDS011;2890;51.950;7.668;2023-03-04T03:17:34;10.10;;;3.37;;
5730;SDS011;2890;51.950;7.668;2023-03-04T03:20:02;6.77;;;2.80;;
5730;SDS011;2890;51.950;7.668;2023-03-04T03:22:29;12.70;;;2.70;;
5730;SDS011;2890;51.950;7.668;2023-03-04T03:24:55;8.57;;;2.70;;
5730;SDS011;2890;51.950;7.668;2023-03-04T03:27:22;12.37;;;3.43;;
5730;SDS011;2890;51.950;7.668;2023-03-04T03:29:48;14.17;;;2.83;;
5730;SDS011;2890;51.950;7.668;2023-03-04T03:32:17;13.60;;;3.80;;
5730;SDS011;2890;51.950;7.668;2023-03-04T03:34:44;12.17;;;2.83;;
5730;SDS011;2890;51.950;7.668;2023-03-04T03:37:11;14.03;;;2.70;;
5730;SDS011;2890;51.950;7.668;2023-03-04T03:39:38;9.90;;;2.60;;
5730;SDS011;2890;51.950;7.668;2023-03-04T03:42:04;15.10;;;3.10;;
5730;SDS011;2890;51.950;7.668;2023-03-04T03:44:31;12.07;;;3.33;;
5730;SDS011;2890;51.950;7.668;2023-03-04T03:46:58;18.57;;;4.60;;
5730;SDS011;2890;51.950;7.668;2023-03-04T03:49:24;7.97;;;2.90;;
5730;SDS011;2890;51.950;7.668;2023-03-04T03:51:51;10.93;;;3.23;;
5730;SDS011;2890;51.950;7.668;2023-03-04T03:54:18;12.30;;;2.97;;
5730;SDS011;2890;51.950;7.668;2023-03-04T03:56:45;14.00;;;3.50;;
5730;SDS011;2890;51.950;7.668;2023-03-04T03:59:11;8.70;;;3.20;;
5730;SDS011;2890;51.950;7.668;2023-03-04T04:01:38;5.53;;;2.83;;
5730;SDS011;2890;51.950;7.668;2023-03-04T04:04:07;14.77;;;3.07;;
5730;SDS011;2890;51.950;7.668;2023-03-04T04:06:34;11.07;;;2.97;;
5730;SDS011;2890;51.950;7.668;2023-03-04T04:09:00;11.60;;;3.13;;
5730;SDS011;2890;51.950;7.668;2023-03-04T04:11:28;8.80;;;2.50;;
5730;SDS011;2890;51.950;7.668;2023-03-04T04:13:54;9.33;;;2.73;;
5730;SDS011;2890;51.950;7.668;2023-03-04T04:16:21;16.03;;;3.47;;
5730;SDS011;2890;51.950;7.668;2023-03-04T04:18:47;11.67;;;2.80;;
5730;SDS011;2890;51.950;7.668;2023-03-04T04:21:14;12.63;;;3.27;;
5730;SDS011;2890;51.950;7.668;2023-03-04T04:23:40;10.50;;;2.93;;
5730;SDS011;2890;51.950;7.668;2023-03-04T04:26:07;10.07;;;2.43;;
5730;SDS011;2890;51.950;7.668;2023-03-04T04:28:34;6.70;;;2.37;;
5730;SDS011;2890;51.950;7.668;2023-03-04T04:31:01;16.10;;;3.73;;
5730;SDS011;2890;51.950;7.668;2023-03-04T04:33:27;9.43;;;2.40;;
5730;SDS011;2890;51.950;7.668;2023-03-04T04:35:53;11.50;;;3.00;;
5730;SDS011;2890;51.950;7.668;2023-03-04T04:38:20;9.70;;;2.60;;
5730;SDS011;2890;51.950;7.668;2023-03-04T04:40:46;8.30;;;3.83;;
5730;SDS011;2890;51.950;7.668;2023-03-04T04:43:13;11.47;;;2.40;;
5730;SDS011;2890;51.950;7.668;2023-03-04T04:45:40;11.47;;;2.60;;
5730;SDS011;2890;51.950;7.668;2023-03-04T04:48:07;6.87;;;2.60;;
5730;SDS011;2890;51.950;7.668;2023-03-04T04:50:33;11.87;;;2.80;;
5730;SDS011;2890;51.950;7.668;2023-03-04T04:53:00;11.53;;;2.93;;
5730;SDS011;2890;51.950;7.668;2023-03-04T04:55:26;8.70;;;2.70;;
5730;SDS011;2890;51.950;7.668;2023-03-04T04:57:53;9.87;;;2.40;;
5730;SDS011;2890;51.950;7.668;2023-03-04T05:00:19;11.23;;;2.83;;
5730;SDS011;2890;51.950;7.668;2023-03-04T05:02:47;12.30;;;3.10;;
5730;SDS011;2890;51.950;7.668;2023-03-04T05:05:14;13.27;;;3.03;;
5730;SDS011;2890;51.950;7.668;2023-03-04T05:07:40;10.60;;;3.27;;
5730;SDS011;2890;51.950;7.668;2023-03-04T05:10:08;7.83;;;2.47;;
5730;SDS011;2890;51.950;7.668;2023-03-04T05:12:35;10.33;;;2.63;;
5730;SDS011;2890;51.950;7.668;2023-03-04T05:15:01;11.40;;;3.13;;
5730;SDS011;2890;51.950;7.668;2023-03-04T05:17:28;8.07;;;2.67;;
5730;SDS011;2890;51.950;7.668;2023-03-04T05:19:56;9.73;;;2.60;;
5730;SDS011;2890;51.950;7.668;2023-03-04T05:22:22;10.27;;;2.67;;
5730;SDS011;2890;51.950;7.668;2023-03-04T05:24:48;12.03;;;2.93;;
5730;SDS011;2890;51.950;7.668;2023-03-04T05:27:15;8.93;;;2.77;;
5730;SDS011;2890;51.950;7.668;2023-03-04T05:29:42;7.90;;;2.60;;
5730;SDS011;2890;51.950;7.668;2023-03-04T05:32:10;8.83;;;2.57;;
5730;SDS011;2890;51.950;7.668;2023-03-04T05:34:37;9.07;;;2.17;;
5730;SDS011;2890;51.950;7.668;2023-03-04T05:37:05;9.30;;;2.40;;
5730;SDS011;2890;51.950;7.668;2023-03-04T05:39:31;14.07;;;2.40;;
5730;SDS011;2890;51.950;7.668;2023-03-04T05:41:57;8.63;;;2.20;;
5730;SDS011;2890;51.950;7.668;2023-03-04T05:44:24;7.33;;;2.30;;
5730;SDS011;2890;51.950;7.668;2023-03-04T05:46:50;8.93;;;2.60;;
5730;SDS011;2890;51.950;7.668;2023-03-04T05:49:17;11.90;;;2.43;;
5730;SDS011;2890;51.950;7.668;2023-03-04T05:51:44;4.37;;;1.90;;
5730;SDS011;2890;51.950;7.668;2023-03-04T05:54:12;12.93;;;2.33;;
5730;SDS011;2890;51.950;7.668;2023-03-04T05:56:38;6.30;;;2.20;;
5730;SDS011;2890;51.950;7.668;2023-03-04T05:59:05;6.77;;;2.50;;
5730;SDS011;2890;51.950;7.668;2023-03-04T06:01:31;7.50;;;1.97;;
5730;SDS011;2890;51.950;7.668;2023-03-04T06:03:57;10.40;;;3.33;;
5730;SDS011;2890;51.950;7.668;2023-03-04T06:06:24;7.47;;;2.10;;
5730;SDS011;2890;51.950;7.668;2023-03-04T06:08:50;10.73;;;2.63;;
5730;SDS011;2890;51.950;7.668;2023-03-04T06:11:18;10.23;;;2.60;;
5730;SDS011;2890;51.950;7.668;2023-03-04T06:13:44;8.33;;;2.67;;
5730;SDS011;2890;51.950;7.668;2023-03-04T06:16:42;2.93;;;1.20;;
5730;SDS011;2890;51.950;7.668;2023-03-04T06:19:08;0.90;;;0.83;;
5730;SDS011;2890;51.950;7.668;2023-03-04T06:21:35;0.60;;;0.60;;
5730;SDS011;2890;51.950;7.668;2023-03-04T06:24:01;0.40;;;0.40;;
5730;SDS011;2890;51.950;7.668;2023-03-04T06:26:27;0.50;;;0.50;;
5730;SDS011;2890;51.950;7.668;2023-03-04T06:28:54;0.30;;;0.30;;
5730;SDS011;2890;51.950;7.668;2023-03-04T06:31:21;0.20;;;0.20;;
5730;SDS011;2890;51.950;7.668;2023-03-04T06:33:48;0.20;;;0.20;;
5730;SDS011;2890;51.950;7.668;2023-03-04T06:36:15;0.10;;;0.10;;
5730;SDS011;2890;51.950;7.668;2023-03-04T06:38:41;0.10;;;0.10;;
5730;SDS011;2890;51.950;7.668;2023-03-04T06:41:08;0.10;;;0.10;;
5730;SDS011;2890;51.950;7.668;2023-03-04T06:43:36;0.20;;;0.20;;
5730;SDS011;2890;51.950;7.668;2023-03-04T06:46:03;0.10;;;0.10;;
5730;SDS011;2890;51.950;7.668;2023-03-04T06:48:29;0.10;;;0.10;;
5730;SDS011;2890;51.950;7.668;2023-03-04T06:50:57;0.10;;;0.10;;
5730;SDS011;2890;51.950;7.668;2023-03-04T06:53:24;0.03;;;0.03;;
5730;SDS011;2890;51.950;7.668;2023-03-04T06:55:50;0.10;;;0.10;;
5730;SDS011;2890;51.950;7.668;2023-03-04T06:58:17;0.00;;;0.00;;
5730;SDS011;2890;51.950;7.668;2023-03-04T07:00:43;0.10;;;0.10;;
5730;SDS011;2890;51.950;7.668;2023-03-04T07:03:10;0.00;;;0.00;;
5730;SDS011;2890;51.950;7.668;2023-03-04T07:05:36;0.00;;;0.00;;
5730;SDS011;2890;51.950;7.668;2023-03-04T07:08:04;0.10;;;0.10;;
5730;SDS011;2890;51.950;7.668;2023-03-04T07:10:31;0.10;;;0.10;;
5730;SDS011;2890;51.950;7.668;2023-03-04T07:12:58;0.10;;;0.10;;
5730;SDS011;2890;51.950;7.668;2023-03-04T07:15:24;0.10;;;0.10;;
5730;SDS011;2890;51.950;7.668;2023-03-04T07:17:51;0.10;;;0.10;;
5730;SDS011;2890;51.950;7.668;2023-03-04T07:20:17;0.00;;;0.00;;
5730;SDS011;2890;51.950;7.668;2023-03-04T07:22:44;0.00;;;0.00;;
5730;SDS011;2890;51.950;7.668;2023-03-04T07:25:11;0.03;;;0.03;;
5730;SDS011;2890;51.950;7.668;2023-03-04T07:27:38;0.10;;;0.10;;
5730;SDS011;2890;51.950;7.668;2023-03-04T07:30:05;0.10;;;0.10;;
5730;SDS011;2890;51.950;7.668;2023-03-04T07:32:32;0.00;;;0.00;;
5730;SDS011;2890;51.950;7.668;2023-03-04T07:34:59;0.00;;;0.00;;
5730;SDS011;2890;51.950;7.668;2023-03-04T07:37:26;0.00;;;0.00;;
5730;SDS011;2890;51.950;7.668;2023-03-04T07:39:52;0.10;;;0.10;;
5730;SDS011;2890;51.950;7.668;2023-03-04T07:42:20;0.10;;;0.10;;
5730;SDS011;2890;51.950;7.668;2023-03-04T07:44:46;0.00;;;0.00;;
5730;SDS011;2890;51.950;7.668;2023-03-04T07:47:13;0.10;;;0.10;;
5730;SDS011;2890;51.950;7.668;2023-03-04T07:49:39;0.07;;;0.07;;
5730;SDS011;2890;51.950;7.668;2023-03-04T07:52:06;0.00;;;0.00;;
5730;SDS011;2890;51.950;7.668;2023-03-04T07:54:32;0.07;;;0.07;;
5730;SDS011;2890;51.950;7.668;2023-03-04T07:56:59;0.00;;;0.00;;
5730;SDS011;2890;51.950;7.668;2023-03-04T07:59:27;0.10;;;0.10;;
5730;SDS011;2890;51.950;7.668;2023-03-04T08:01:53;0.03;;;0.03;;
5730;SDS011;2890;51.950;7.668;2023-03-04T08:04:20;0.00;;;0.00;;
5730;SDS011;2890;51.950;7.668;2023-03-04T08:06:46;0.20;;;0.20;;
5730;SDS011;2890;51.950;7.668;2023-03-04T08:09:13;0.10;;;0.10;;
5730;SDS011;2890;51.950;7.668;2023-03-04T08:11:40;0.00;;;0.00;;
5730;SDS011;2890;51.950;7.668;2023-03-04T08:14:06;0.00;;;0.00;;
5730;SDS011;2890;51.950;7.668;2023-03-04T08:16:34;0.00;;;0.00;;
5730;SDS011;2890;51.950;7.668;2023-03-04T08:19:02;0.10;;;0.10;;
5730;SDS011;2890;51.950;7.668;2023-03-04T08:21:29;0.00;;;0.00;;
5730;SDS011;2890;51.950;7.668;2023-03-04T08:23:56;0.00;;;0.00;;
5730;SDS011;2890;51.950;7.668;2023-03-04T08:26:23;0.00;;;0.00;;
5730;SDS011;2890;51.950;7.668;2023-03-04T08:28:51;0.00;;;0.00;;
5730;SDS011;2890;51.950;7.668;2023-03-04T08:31:19;0.07;;;0.07;;
5730;SDS011;2890;51.950;7.668;2023-03-04T08:33:47;0.10;;;0.10;;
5730;SDS011;2890;51.950;7.668;2023-03-04T08:36:14;0.00;;;0.00;;
5730;SDS011;2890;51.950;7.668;2023-03-04T08:38:41;0.00;;;0.00;;
5730;SDS011;2890;51.950;7.668;2023-03-04T08:41:08;0.10;;;0.10;;
5730;SDS011;2890;51.950;7.668;2023-03-04T08:43:34;0.00;;;0.00;;
5730;SDS011;2890;51.950;7.668;2023-03-04T08:46:01;0.03;;;0.03;;
5730;SDS011;2890;51.950;7.668;2023-03-04T08:48:28;0.00;;;0.00;;
5730;SDS011;2890;51.950;7.668;2023-03-04T08:50:56;0.10;;;0.10;;
5730;SDS011;2890;51.950;7.668;2023-03-04T08:53:23;0.03;;;0.03;;
5730;SDS011;2890;51.950;7.668;2023-03-04T08:55:50;0.00;;;0.00;;
5730;SDS011;2890;51.950;7.668;2023-03-04T08:58:17;0.00;;;0.00;;
5730;SDS011;2890;51.950;7.668;2023-03-04T09:00:44;0.00;;;0.00;;
5730;SDS011;2890;51.950;7.668;2023-03-04T09:03:12;0.00;;;0.00;;
5730;SDS011;2890;51.950;7.668;2023-03-04T09:05:39;0.00;;;0.00;;
5730;SDS011;2890;51.950;7.668;2023-03-04T09:08:08;0.00;;;0.00;;
5730;SDS011;2890;51.950;7.668;2023-03-04T09:10:34;0.00;;;0.00;;
5730;SDS011;2890;51.950;7.668;2023-03-04T09:13:01;0.00;;;0.00;;
5730;SDS011;2890;51.950;7.668;2023-03-04T09:15:27;0.10;;;0.10;;
5730;SDS011;2890;51.950;7.668;2023-03-04T09:17:54;0.10;;;0.10;;
5730;SDS011;2890;51.950;7.668;2023-03-04T09:20:20;0.07;;;0.07;;
5730;SDS011;2890;51.950;7.668;2023-03-04T09:22:47;0.00;;;0.00;;
5730;SDS011;2890;51.950;7.668;2023-03-04T09:25:15;0.00;;;0.00;;
5730;SDS011;2890;51.950;7.668;2023-03-04T09:27:41;0.10;;;0.10;;
5730;SDS011;2890;51.950;7.668;2023-03-04T09:30:08;0.07;;;0.07;;
5730;SDS011;2890;51.950;7.668;2023-03-04T09:32:36;0.00;;;0.00;;
5730;SDS011;2890;51.950;7.668;2023-03-04T09:35:02;0.10;;;0.10;;
5730;SDS011;2890;51.950;7.668;2023-03-04T09:37:29;0.00;;;0.00;;
5730;SDS011;2890;51.950;7.668;2023-03-04T09:39:56;0.00;;;0.00;;
5730;SDS011;2890;51.950;7.668;2023-03-04T09:42:26;0.03;;;0.03;;
5730;SDS011;2890;51.950;7.668;2023-03-04T09:44:56;0.10;;;0.10;;
5730;SDS011;2890;51.950;7.668;2023-03-04T09:47:22;0.00;;;0.00;;
5730;SDS011;2890;51.950;7.668;2023-03-04T09:49:52;0.00;;;0.00;;
5730;SDS011;2890;51.950;7.668;2023-03-04T09:52:22;0.00;;;0.00;;
5730;SDS011;2890;51.950;7.668;2023-03-04T09:54:56;0.10;;;0.10;;
5730;SDS011;2890;51.950;7.668;2023-03-04T09:57:29;0.10;;;0.10;;
5730;SDS011;2890;51.950;7.668;2023-03-04T10:00:09;0.00;;;0.00;;
5730;SDS011;2890;51.950;7.668;2023-03-04T10:02:45;0.00;;;0.00;;
5730;SDS011;2890;51.950;7.668;2023-03-04T10:05:19;0.07;;;0.07;;
5730;SDS011;2890;51.950;7.668;2023-03-04T10:07:47;0.10;;;0.10;;
5730;SDS011;2890;51.950;7.668;2023-03-04T10:10:15;0.10;;;0.10;;
5730;SDS011;2890;51.950;7.668;2023-03-04T10:12:46;0.00;;;0.00;;
5730;SDS011;2890;51.950;7.668;2023-03-04T10:15:17;0.10;;;0.10;;
5730;SDS011;2890;51.950;7.668;2023-03-04T10:17:49;0.10;;;0.10;;
5730;SDS011;2890;51.950;7.668;2023-03-04T10:20:19;0.10;;;0.10;;
5730;SDS011;2890;51.950;7.668;2023-03-04T10:22:48;0.10;;;0.10;;
5730;SDS011;2890;51.950;7.668;2023-03-04T10:25:17;0.10;;;0.10;;
5730;SDS011;2890;51.950;7.668;2023-03-04T10:27:50;0.10;;;0.10;;
5730;SDS011;2890;51.950;7.668;2023-03-04T10:30:20;0.10;;;0.10;;
5730;SDS011;2890;51.950;7.668;2023-03-04T10:32:52;0.00;;;0.00;;
5730;SDS011;2890;51.950;7.668;2023-03-04T10:35:19;0.00;;;0.00;;
5730;SDS011;2890;51.950;7.668;2023-03-04T10:37:48;0.10;;;0.10;;
5730;SDS011;2890;51.950;7.668;2023-03-04T10:40:20;0.00;;;0.00;;
5730;SDS011;2890;51.950;7.668;2023-03-04T10:42:49;0.00;;;0.00;;
5730;SDS011;2890;51.950;7.668;2023-03-04T10:45:20;0.10;;;0.10;;
5730;SDS011;2890;51.950;7.668;2023-03-04T10:47:51;0.00;;;0.00;;
5730;SDS011;2890;51.950;7.668;2023-03-04T10:50:22;0.10;;;0.10;;
5730;SDS011;2890;51.950;7.668;2023-03-04T10:52:50;0.10;;;0.10;;
5730;SDS011;2890;51.950;7.668;2023-03-04T10:55:20;0.00;;;0.00;;
5730;SDS011;2890;51.950;7.668;2023-03-04T10:57:51;0.00;;;0.00;;
5730;SDS011;2890;51.950;7.668;2023-03-04T11:00:23;0.10;;;0.10;;
5730;SDS011;2890;51.950;7.668;2023-03-04T11:02:52;0.00;;;0.00;;
5730;SDS011;2890;51.950;7.668;2023-03-04T11:05:44;0.00;;;0.00;;
5730;SDS011;2890;51.950;7.668;2023-03-04T11:08:15;0.00;;;0.00;;
5730;SDS011;2890;51.950;7.668;2023-03-04T11:10:44;0.00;;;0.00;;
5730;SDS011;2890;51.950;7.668;2023-03-04T11:13:14;0.10;;;0.10;;
5730;SDS011;2890;51.950;7.668;2023-03-04T11:15:48;0.00;;;0.00;;
5730;SDS011;2890;51.950;7.668;2023-03-04T11:18:16;0.00;;;0.00;;
5730;SDS011;2890;51.950;7.668;2023-03-04T11:20:45;0.10;;;0.10;;
5730;SDS011;2890;51.950;7.668;2023-03-04T11:23:13;0.00;;;0.00;;
5730;SDS011;2890;51.950;7.668;2023-03-04T11:25:43;0.00;;;0.00;;
5730;SDS011;2890;51.950;7.668;2023-03-04T11:28:14;0.00;;;0.00;;
5730;SDS011;2890;51.950;7.668;2023-03-04T11:30:43;0.00;;;0.00;;
5730;SDS011;2890;51.950;7.668;2023-03-04T11:33:13;0.10;;;0.10;;
5730;SDS011;2890;51.950;7.668;2023-03-04T11:35:49;0.10;;;0.10;;
5730;SDS011;2890;51.950;7.668;2023-03-04T11:38:21;0.00;;;0.00;;
5730;SDS011;2890;51.950;7.668;2023-03-04T11:40:56;0.00;;;0.00;;
5730;SDS011;2890;51.950;7.668;2023-03-04T11:43:25;0.00;;;0.00;;
5730;SDS011;2890;51.950;7.668;2023-03-04T11:46:08;0.00;;;0.00;;
5730;SDS011;2890;51.950;7.668;2023-03-04T11:49:00;0.10;;;0.10;;
5730;SDS011;2890;51.950;7.668;2023-03-04T11:51:35;0.00;;;0.00;;
5730;SDS011;2890;51.950;7.668;2023-03-04T11:54:15;0.00;;;0.00;;
5730;SDS011;2890;51.950;7.668;2023-03-04T11:56:46;0.00;;;0.00;;
5730;SDS011;2890;51.950;7.668;2023-03-04T11:59:26;0.10;;;0.10;;
5730;SDS011;2890;51.950;7.668;2023-03-04T12:02:02;0.00;;;0.00;;
5730;SDS011;2890;51.950;7.668;2023-03-04T12:04:39;0.00;;;0.00;;
5730;SDS011;2890;51.950;7.668;2023-03-04T12:07:29;0.00;;;0.00;;
5730;SDS011;2890;51.950;7.668;2023-03-04T12:10:13;0.00;;;0.00;;
5730;SDS011;2890;51.950;7.668;2023-03-04T12:12:50;0.10;;;0.10;;
5730;SDS011;2890;51.950;7.668;2023-03-04T12:15:29;0.00;;;0.00;;
5730;SDS011;2890;51.950;7.668;2023-03-04T12:18:01;0.10;;;0.10;;
5730;SDS011;2890;51.950;7.668;2023-03-04T12:20:43;0.00;;;0.00;;
5730;SDS011;2890;51.950;7.668;2023-03-04T12:23:21;0.00;;;0.00;;
5730;SDS011;2890;51.950;7.668;2023-03-04T12:25:55;0.00;;;0.00;;
5730;SDS011;2890;51.950;7.668;2023-03-04T12:28:25;0.10;;;0.10;;
5730;SDS011;2890;51.950;7.668;2023-03-04T12:31:05;0.00;;;0.00;;
5730;SDS011;2890;51.950;7.668;2023-03-04T12:33:39;0.00;;;0.00;;
5730;SDS011;2890;51.950;7.668;2023-03-04T12:36:10;0.00;;;0.00;;
5730;SDS011;2890;51.950;7.668;2023-03-04T12:38:43;0.00;;;0.00;;
5730;SDS011;2890;51.950;7.668;2023-03-04T12:44:24;0.00;;;0.00;;
5730;SDS011;2890;51.950;7.668;2023-03-04T12:47:15;0.10;;;0.10;;
5730;SDS011;2890;51.950;7.668;2023-03-04T12:49:53;0.03;;;0.03;;
5730;SDS011;2890;51.950;7.668;2023-03-04T12:52:28;0.00;;;0.00;;
5730;SDS011;2890;51.950;7.668;2023-03-04T12:55:01;0.03;;;0.03;;
5730;SDS011;2890;51.950;7.668;2023-03-04T12:57:28;0.00;;;0.00;;
5730;SDS011;2890;51.950;7.668;2023-03-04T12:59:56;0.10;;;0.10;;
5730;SDS011;2890;51.950;7.668;2023-03-04T13:02:38;0.10;;;0.10;;
5730;SDS011;2890;51.950;7.668;2023-03-04T13:08:10;0.00;;;0.00;;
5730;SDS011;2890;51.950;7.668;2023-03-04T13:10:41;0.10;;;0.10;;
5730;SDS011;2890;51.950;7.668;2023-03-04T13:13:32;0.00;;;0.00;;
5730;SDS011;2890;51.950;7.668;2023-03-04T13:16:00;0.10;;;0.10;;
5730;SDS011;2890;51.950;7.668;2023-03-04T13:18:33;0.00;;;0.00;;
5730;SDS011;2890;51.950;7.668;2023-03-04T13:21:04;0.00;;;0.00;;
5730;SDS011;2890;51.950;7.668;2023-03-04T13:23:32;0.00;;;0.00;;
5730;SDS011;2890;51.950;7.668;2023-03-04T13:28:50;0.00;;;0.00;;
5730;SDS011;2890;51.950;7.668;2023-03-04T13:31:23;0.00;;;0.00;;
5730;SDS011;2890;51.950;7.668;2023-03-04T13:34:02;0.03;;;0.03;;
5730;SDS011;2890;51.950;7.668;2023-03-04T13:39:33;0.10;;;0.10;;
5730;SDS011;2890;51.950;7.668;2023-03-04T13:42:01;0.00;;;0.00;;
5730;SDS011;2890;51.950;7.668;2023-03-04T13:47:26;0.10;;;0.10;;
5730;SDS011;2890;51.950;7.668;2023-03-04T13:52:53;0.00;;;0.00;;
5730;SDS011;2890;51.950;7.668;2023-03-04T13:55:31;0.00;;;0.00;;
5730;SDS011;2890;51.950;7.668;2023-03-04T13:57:59;0.00;;;0.00;;
5730;SDS011;2890;51.950;7.668;2023-03-04T14:00:26;0.00;;;0.00;;
5730;SDS011;2890;51.950;7.668;2023-03-04T14:02:52;0.00;;;0.00;;
5730;SDS011;2890;51.950;7.668;2023-03-04T14:05:19;0.00;;;0.00;;
5730;SDS011;2890;51.950;7.668;2023-03-04T14:07:47;0.00;;;0.00;;
5730;SDS011;2890;51.950;7.668;2023-03-04T14:10:20;0.00;;;0.00;;
5730;SDS011;2890;51.950;7.668;2023-03-04T14:12:49;0.00;;;0.00;;
5730;SDS011;2890;51.950;7.668;2023-03-04T14:15:20;0.00;;;0.00;;
5730;SDS011;2890;51.950;7.668;2023-03-04T14:17:48;0.10;;;0.10;;
5730;SDS011;2890;51.950;7.668;2023-03-04T14:20:20;0.00;;;0.00;;
5730;SDS011;2890;51.950;7.668;2023-03-04T14:22:51;0.00;;;0.00;;
5730;SDS011;2890;51.950;7.668;2023-03-04T14:25:19;0.00;;;0.00;;
5730;SDS011;2890;51.950;7.668;2023-03-04T14:27:47;0.00;;;0.00;;
5730;SDS011;2890;51.950;7.668;2023-03-04T14:30:18;0.00;;;0.00;;
5730;SDS011;2890;51.950;7.668;2023-03-04T14:32:46;0.00;;;0.00;;
5730;SDS011;2890;51.950;7.668;2023-03-04T14:35:17;0.00;;;0.00;;
5730;SDS011;2890;51.950;7.668;2023-03-04T14:37:47;0.00;;;0.00;;
5730;SDS011;2890;51.950;7.668;2023-03-04T14:40:19;0.00;;;0.00;;
5730;SDS011;2890;51.950;7.668;2023-03-04T14:42:46;0.10;;;0.10;;
5730;SDS011;2890;51.950;7.668;2023-03-04T14:45:14;0.00;;;0.00;;
5730;SDS011;2890;51.950;7.668;2023-03-04T14:47:42;0.03;;;0.03;;
5730;SDS011;2890;51.950;7.668;2023-03-04T14:50:12;0.00;;;0.00;;
5730;SDS011;2890;51.950;7.668;2023-03-04T14:52:40;0.00;;;0.00;;
5730;SDS011;2890;51.950;7.668;2023-03-04T14:55:16;0.00;;;0.00;;
5730;SDS011;2890;51.950;7.668;2023-03-04T14:57:47;0.10;;;0.10;;
5730;SDS011;2890;51.950;7.668;2023-03-04T15:00:22;0.00;;;0.00;;
5730;SDS011;2890;51.950;7.668;2023-03-04T15:02:51;0.00;;;0.00;;
5730;SDS011;2890;51.950;7.668;2023-03-04T15:05:22;0.00;;;0.00;;
5730;SDS011;2890;51.950;7.668;2023-03-04T15:07:50;0.10;;;0.10;;
5730;SDS011;2890;51.950;7.668;2023-03-04T15:10:21;0.10;;;0.10;;
5730;SDS011;2890;51.950;7.668;2023-03-04T15:12:52;0.10;;;0.10;;
5730;SDS011;2890;51.950;7.668;2023-03-04T15:18:19;0.00;;;0.00;;
5730;SDS011;2890;51.950;7.668;2023-03-04T15:20:51;0.00;;;0.00;;
5730;SDS011;2890;51.950;7.668;2023-03-04T15:23:22;0.00;;;0.00;;
5730;SDS011;2890;51.950;7.668;2023-03-04T15:25:53;0.10;;;0.10;;
5730;SDS011;2890;51.950;7.668;2023-03-04T15:28:22;0.00;;;0.00;;
5730;SDS011;2890;51.950;7.668;2023-03-04T15:30:49;0.00;;;0.00;;
5730;SDS011;2890;51.950;7.668;2023-03-04T15:33:16;0.00;;;0.00;;
5730;SDS011;2890;51.950;7.668;2023-03-04T15:35:44;0.00;;;0.00;;
5730;SDS011;2890;51.950;7.668;2023-03-04T15:38:16;0.10;;;0.10;;
5730;SDS011;2890;51.950;7.668;2023-03-04T15:40:43;0.20;;;0.20;;
5730;SDS011;2890;51.950;7.668;2023-03-04T15:43:12;0.00;;;0.00;;